createdAt,value
2022-07-29T00:01:56.783Z,100137.28
2022-07-29T00:06:58.349Z,100138.63
2022-07-29T00:12:01.778Z,100133.94
2022-07-29T00:17:03.605Z,100136.13
2022-07-29T00:22:05.245Z,100136.03
2022-07-29T00:27:06.854Z,100122.22
2022-07-29T00:32:08.489Z,100111.06
2022-07-29T00:37:10.051Z,100111.09
2022-07-29T00:42:11.894Z,100105.91
2022-07-29T00:47:13.706Z,100111.44
2022-07-29T00:52:17.220Z,100107.81
2022-07-29T00:57:19.123Z,100106.81
2022-07-29T01:02:20.754Z,100087.78
2022-07-29T01:07:22.479Z,100081.63
2022-07-29T01:12:26.737Z,100086.47
2022-07-29T01:18:06.654Z,100085.22
2022-07-29T01:23:21.972Z,100081.84
2022-07-29T01:28:47.948Z,100065.50
2022-07-29T01:33:58.702Z,100062.84
2022-07-29T01:39:08.628Z,100068.28
2022-07-29T01:44:18.684Z,100063.91
2022-07-29T01:49:28.725Z,100067.75
2022-07-29T01:54:36.276Z,100058.81
2022-07-29T01:59:39.514Z,100057.75
2022-07-29T02:04:43.850Z,100060.41
2022-07-29T02:09:48.250Z,100066.25
2022-07-29T02:14:53.154Z,100059.56
2022-07-29T02:19:58.372Z,100057.75
2022-07-29T02:25:01.263Z,100054.25
2022-07-29T02:30:07.557Z,100041.34
2022-07-29T02:35:10.621Z,100047.81
2022-07-29T02:40:16.149Z,100047.50
2022-07-29T02:45:18.108Z,100051.47
2022-07-29T02:50:33.630Z,100044.94
2022-07-29T02:55:43.204Z,100041.78
2022-07-29T03:00:48.616Z,100041.09
2022-07-29T03:05:50.621Z,100045.56
2022-07-29T03:10:53.113Z,100047.50
2022-07-29T03:15:55.113Z,100042.19
2022-07-29T03:20:56.835Z,100038.94
2022-07-29T03:25:58.506Z,100045.59
2022-07-29T03:31:00.207Z,100039.69
2022-07-29T03:36:03.422Z,100038.09
2022-07-29T03:41:10.452Z,100034.16
2022-07-29T03:46:14.515Z,100035.63
2022-07-29T03:51:16.271Z,100022.34
2022-07-29T03:56:21.542Z,100029.28
2022-07-29T04:01:23.661Z,100033.38
2022-07-29T04:06:26.698Z,100027.38
2022-07-29T04:11:28.448Z,100043.41
2022-07-29T04:16:30.302Z,100036.88
2022-07-29T04:21:32.004Z,100041.69
2022-07-29T04:26:34.190Z,100044.31
2022-07-29T04:31:35.955Z,100036.66
2022-07-29T04:36:37.902Z,100044.34
2022-07-29T04:41:39.489Z,100043.94
2022-07-29T04:46:41.307Z,100048.44
2022-07-29T04:51:42.958Z,100048.47
2022-07-29T04:56:44.623Z,100040.25
2022-07-29T05:01:46.304Z,100038.44
2022-07-29T05:06:48.005Z,100041.69
2022-07-29T05:11:49.679Z,100027.38
2022-07-29T05:16:52.115Z,100035.28
2022-07-29T05:21:53.719Z,100026.50
2022-07-29T05:26:55.349Z,100030.06
2022-07-29T05:31:57.025Z,100044.88
2022-07-29T05:36:58.972Z,100044.03
2022-07-29T05:42:00.577Z,100049.72
2022-07-29T05:47:02.135Z,100040.53
2022-07-29T05:52:04.198Z,100043.59
2022-07-29T05:57:06.373Z,100036.84
2022-07-29T06:02:08.019Z,100044.06
2022-07-29T06:07:09.703Z,100046.00
2022-07-29T06:12:11.380Z,100049.81
2022-07-29T06:17:13.043Z,100039.63
2022-07-29T06:22:17.130Z,100043.81
2022-07-29T06:27:18.710Z,100040.09
2022-07-29T06:32:20.488Z,100040.59
2022-07-29T06:37:24.569Z,100048.59
2022-07-29T06:42:27.741Z,100048.38
2022-07-29T06:47:29.380Z,100052.75
2022-07-29T06:52:30.988Z,100056.44
2022-07-29T06:57:32.949Z,100060.03
2022-07-29T07:02:34.586Z,100054.09
2022-07-29T07:07:36.392Z,100055.78
2022-07-29T07:12:38.013Z,100061.97
2022-07-29T07:17:39.671Z,100056.81
2022-07-29T07:22:41.268Z,100055.56
2022-07-29T07:27:46.136Z,100047.06
2022-07-29T07:32:47.869Z,100049.94
2022-07-29T07:37:49.508Z,100044.41
2022-07-29T07:42:51.296Z,100048.16
2022-07-29T07:47:52.892Z,100048.88
2022-07-29T07:52:58.864Z,100040.34
2022-07-29T07:58:00.696Z,100037.88
2022-07-29T08:03:02.673Z,100037.00
2022-07-29T08:08:04.582Z,100023.72
2022-07-29T08:13:11.865Z,100024.66
2022-07-29T08:18:14.035Z,100021.47
2022-07-29T08:23:15.644Z,100016.84
2022-07-29T08:28:18.414Z,100011.88
2022-07-29T08:33:20.165Z,100013.97
2022-07-29T08:38:22.076Z,100010.34
2022-07-29T08:43:24.039Z,100014.03
2022-07-29T08:48:25.846Z,100010.50
2022-07-29T08:53:29.154Z,99999.06
2022-07-29T08:58:36.910Z,100004.00
2022-07-29T09:03:41.716Z,99997.81
2022-07-29T09:08:43.865Z,99991.69
2022-07-29T09:13:45.600Z,99981.47
2022-07-29T09:18:47.384Z,99977.19
2022-07-29T09:24:12.758Z,99963.56
2022-07-29T09:29:15.578Z,99963.81
2022-07-29T09:34:29.523Z,99954.63
2022-07-29T09:39:45.137Z,99967.19
2022-07-29T09:44:50.323Z,99955.94
2022-07-29T09:49:59.141Z,99962.31
2022-07-29T09:55:08.488Z,99965.16
2022-07-29T10:00:15.728Z,99968.88
2022-07-29T10:05:25.559Z,99955.44
2022-07-29T10:10:32.901Z,99947.41
2022-07-29T10:15:41.828Z,99953.09
2022-07-29T10:20:43.639Z,99938.69
2022-07-29T10:25:46.958Z,99933.91
2022-07-29T10:30:51.457Z,99934.19
2022-07-29T10:36:04.534Z,99935.50
2022-07-29T10:46:57.522Z,99922.38
2022-07-29T10:52:06.357Z,99918.19
2022-07-29T10:57:25.761Z,99924.16
2022-07-29T11:02:41.293Z,99924.38
2022-07-29T11:08:19.945Z,99916.00
2022-07-29T11:13:44.624Z,99914.03
2022-07-29T11:19:13.871Z,99903.16
2022-07-29T11:24:28.559Z,99900.50
2022-07-29T11:29:33.130Z,99903.16
2022-07-29T11:34:42.422Z,99890.00
2022-07-29T11:39:45.565Z,99886.25
2022-07-29T11:45:41.056Z,99890.81
2022-07-29T11:50:37.710Z,99891.63
2022-07-29T12:01:07.863Z,99890.50
2022-07-29T12:06:14.974Z,99896.94
2022-07-29T12:11:21.347Z,99884.28
2022-07-29T12:16:25.743Z,99885.25
2022-07-29T12:21:53.832Z,99882.13
2022-07-29T12:27:00.208Z,99876.28
2022-07-29T12:32:02.091Z,99872.34
2022-07-29T12:37:04.702Z,99867.31
2022-07-29T12:42:18.456Z,99864.38
2022-07-29T12:47:21.105Z,99858.47
2022-07-29T12:52:30.139Z,99859.75
2022-07-29T12:57:32.991Z,99848.53
2022-07-29T13:02:35.690Z,99855.91
2022-07-29T13:07:55.820Z,99853.94
2022-07-29T13:13:10.510Z,99846.38
2022-07-29T13:18:32.423Z,99849.63
2022-07-29T13:23:38.419Z,99844.06
2022-07-29T13:28:40.998Z,99847.94
2022-07-29T13:33:46.039Z,99837.28
2022-07-29T13:38:47.674Z,99836.50
2022-07-29T13:43:50.116Z,99831.81
2022-07-29T13:48:51.923Z,99824.34
2022-07-29T13:53:53.597Z,99830.00
2022-07-29T13:58:55.330Z,99834.19
2022-07-29T14:03:57.174Z,99826.59
2022-07-29T14:08:59.173Z,99814.69
2022-07-29T14:14:00.793Z,99826.22
2022-07-29T14:19:02.847Z,99808.16
2022-07-29T14:24:05.089Z,99811.44
2022-07-29T14:29:19.318Z,99809.94
2022-07-29T14:34:21.166Z,99808.53
2022-07-29T14:39:26.360Z,99809.06
2022-07-29T14:44:33.702Z,99817.59
2022-07-29T14:49:36.382Z,99817.13
2022-07-29T14:54:38.035Z,99809.44
2022-07-29T14:59:39.642Z,99811.00
2022-07-29T15:04:41.391Z,99812.50
2022-07-29T15:09:49.831Z,99814.66
2022-07-29T15:14:51.829Z,99802.84
2022-07-29T15:19:53.502Z,99808.56
2022-07-29T15:24:55.129Z,99808.28
2022-07-29T15:29:56.780Z,99799.50
2022-07-29T15:34:58.464Z,99794.41
2022-07-29T15:40:00.465Z,99792.47
2022-07-29T15:45:03.884Z,99794.06
2022-07-29T15:50:12.842Z,99785.13
2022-07-29T15:55:15.688Z,99779.69
2022-07-29T16:00:18.091Z,99769.38
2022-07-29T16:05:19.946Z,99769.47
2022-07-29T16:10:21.687Z,99769.47
2022-07-29T16:15:23.397Z,99766.56
2022-07-29T16:20:25.434Z,99759.16
2022-07-29T16:25:50.189Z,99750.53
2022-07-29T16:30:51.262Z,99752.56
2022-07-29T16:35:53.199Z,99757.63
2022-07-29T16:40:54.845Z,99760.47
2022-07-29T16:45:56.546Z,99757.28
2022-07-29T16:50:58.222Z,99757.41
2022-07-29T16:55:59.842Z,99763.66
2022-07-29T17:01:01.642Z,99757.09
2022-07-29T17:06:03.487Z,99754.19
2022-07-29T17:11:05.105Z,99752.81
2022-07-29T17:16:06.755Z,99746.63
2022-07-29T17:21:08.323Z,99758.00
2022-07-29T17:26:10.023Z,99755.56
2022-07-29T17:31:12.019Z,99748.59
2022-07-29T17:36:25.473Z,99762.94
2022-07-29T17:41:27.628Z,99753.31
2022-07-29T17:46:29.641Z,99746.91
2022-07-29T17:51:31.315Z,99748.16
2022-07-29T17:56:33.071Z,99745.16
2022-07-29T18:01:35.101Z,99734.78
2022-07-29T18:06:37.266Z,99737.97
2022-07-29T18:11:38.879Z,99744.19
2022-07-29T18:16:41.000Z,99752.25
2022-07-29T18:21:54.568Z,99763.44
2022-07-29T18:26:57.288Z,99761.75
2022-07-29T18:31:59.896Z,99766.91
2022-07-29T18:37:01.723Z,99769.06
2022-07-29T18:42:04.404Z,99767.38
2022-07-29T18:47:06.177Z,99759.72
2022-07-29T18:52:08.280Z,99765.81
2022-07-29T18:57:55.051Z,99758.59
2022-07-29T19:02:31.770Z,99763.78
2022-07-29T19:07:33.747Z,99770.88
2022-07-29T19:12:35.431Z,99776.13
2022-07-29T19:17:37.071Z,99783.91
2022-07-29T19:22:38.792Z,99789.59
2022-07-29T19:27:41.225Z,99808.69
2022-07-29T19:32:42.818Z,99800.03
2022-07-29T19:37:44.552Z,99802.59
2022-07-29T19:42:48.229Z,99807.97
2022-07-29T19:47:50.753Z,99803.31
2022-07-29T19:52:53.022Z,99812.78
2022-07-29T19:57:54.841Z,99818.28
2022-07-29T20:02:57.410Z,99821.38
2022-07-29T20:07:59.447Z,99826.75
2022-07-29T20:13:01.034Z,99833.94
2022-07-29T20:18:02.703Z,99829.09
2022-07-29T20:23:04.329Z,99824.59
2022-07-29T20:28:06.129Z,99828.25
2022-07-29T20:33:08.143Z,99816.81
2022-07-29T20:38:09.816Z,99826.72
2022-07-29T20:43:11.475Z,99825.75
2022-07-29T20:48:13.873Z,99822.31
2022-07-29T20:53:16.714Z,99830.94
2022-07-29T20:58:19.740Z,99832.50
2022-07-29T21:03:21.322Z,99833.34
2022-07-29T21:08:22.977Z,99837.03
2022-07-29T21:13:25.541Z,99836.84
2022-07-29T21:18:30.226Z,99837.91
2022-07-29T21:23:32.355Z,99838.53
2022-07-29T21:28:38.506Z,99841.16
2022-07-29T21:33:42.006Z,99839.88
2022-07-29T21:38:43.627Z,99832.38
2022-07-29T21:43:46.139Z,99839.72
2022-07-29T21:48:47.798Z,99836.50
2022-07-29T21:53:50.578Z,99824.78
2022-07-29T21:58:55.833Z,99833.84
2022-07-29T22:03:57.677Z,99833.06
2022-07-29T22:08:59.283Z,99830.31
2022-07-29T22:14:00.922Z,99835.69
2022-07-29T22:19:03.917Z,99840.38
2022-07-29T22:24:06.026Z,99842.00
2022-07-29T22:29:08.562Z,99835.34
2022-07-29T22:34:13.148Z,99834.84
2022-07-29T22:39:16.160Z,99837.16
2022-07-29T22:44:17.972Z,99829.59
2022-07-29T22:49:19.681Z,99827.28
2022-07-29T22:54:21.334Z,99829.00
2022-07-29T22:59:22.962Z,99822.47
2022-07-29T23:04:25.055Z,99816.88
2022-07-29T23:09:26.682Z,99815.28
2022-07-29T23:14:28.239Z,99819.91
2022-07-29T23:19:29.924Z,99816.06
2022-07-29T23:24:31.520Z,99835.50
2022-07-29T23:29:36.661Z,99843.22
2022-07-29T23:34:38.544Z,99836.03
2022-07-29T23:39:40.223Z,99839.34
2022-07-29T23:44:41.811Z,99841.44
2022-07-29T23:49:43.647Z,99842.63
2022-07-29T23:54:45.400Z,99844.22
2022-07-29T23:59:47.066Z,99850.28
